createdAt,value
2023-02-22T00:01:21.852Z,4.05
2023-02-22T00:03:49.752Z,4.04
2023-02-22T00:06:17.289Z,4.03
2023-02-22T00:08:43.636Z,4.02
2023-02-22T00:11:09.937Z,4.01
2023-02-22T00:13:37.325Z,4.00
2023-02-22T00:16:04.096Z,4.00
2023-02-22T00:18:30.392Z,3.99
2023-02-22T00:20:57.541Z,3.98
2023-02-22T00:23:23.857Z,3.99
2023-02-22T00:25:50.609Z,3.98
2023-02-22T00:28:17.900Z,3.97
2023-02-22T00:30:44.660Z,3.97
2023-02-22T00:33:12.604Z,3.95
2023-02-22T00:35:39.621Z,3.95
2023-02-22T00:38:06.983Z,3.95
2023-02-22T00:40:34.066Z,3.96
2023-02-22T00:43:01.960Z,3.97
2023-02-22T00:45:29.223Z,3.98
2023-02-22T00:47:55.761Z,3.99
2023-02-22T00:50:23.420Z,3.99
2023-02-22T00:52:50.842Z,3.97
2023-02-22T00:55:18.662Z,3.97
2023-02-22T00:57:45.202Z,3.98
2023-02-22T01:00:20.302Z,3.97
2023-02-22T01:02:46.758Z,3.98
2023-02-22T01:05:13.716Z,3.99
2023-02-22T01:07:40.313Z,3.99
2023-02-22T01:10:07.334Z,4.01
2023-02-22T01:12:34.980Z,4.02
2023-02-22T01:15:07.564Z,4.04
2023-02-22T01:17:33.808Z,4.05
2023-02-22T01:20:00.294Z,4.05
2023-02-22T01:22:27.258Z,4.06
2023-02-22T01:24:53.512Z,4.06
2023-02-22T01:27:20.332Z,4.05
2023-02-22T01:29:48.070Z,4.01
2023-02-22T01:32:14.702Z,3.98
2023-02-22T01:34:41.143Z,3.95
2023-02-22T01:37:10.464Z,3.93
2023-02-22T01:39:37.302Z,3.89
2023-02-22T01:42:03.600Z,3.87
2023-02-22T01:44:32.444Z,3.85
2023-02-22T01:46:59.427Z,3.83
2023-02-22T01:49:29.015Z,3.81
2023-02-22T01:51:57.327Z,3.76
2023-02-22T01:54:35.604Z,3.73
2023-02-22T01:57:02.273Z,3.70
2023-02-22T01:59:31.665Z,3.69
2023-02-22T02:01:58.716Z,3.67
2023-02-22T02:04:25.794Z,3.64
2023-02-22T02:06:57.284Z,3.63
2023-02-22T02:09:38.199Z,3.63
2023-02-22T02:12:07.069Z,3.63
2023-02-22T02:14:33.568Z,3.63
2023-02-22T02:17:00.333Z,3.63
2023-02-22T02:19:50.004Z,3.63
2023-02-22T02:22:19.385Z,3.63
2023-02-22T02:25:04.135Z,3.63
2023-02-22T02:27:41.022Z,3.61
2023-02-22T02:30:19.476Z,3.61
2023-02-22T02:33:15.234Z,3.58
2023-02-22T02:35:41.558Z,3.57
2023-02-22T02:38:22.046Z,3.58
2023-02-22T02:40:54.246Z,3.55
2023-02-22T02:43:28.215Z,3.55
2023-02-22T02:46:30.131Z,3.52
2023-02-22T02:49:09.851Z,3.51
2023-02-22T02:51:38.693Z,3.50
2023-02-22T02:54:05.644Z,3.48
2023-02-22T02:56:41.097Z,3.46
2023-02-22T02:59:42.765Z,3.44
2023-02-22T03:02:27.435Z,3.41
2023-02-22T03:05:12.953Z,3.39
2023-02-22T03:07:46.549Z,3.36
2023-02-22T03:10:25.970Z,3.36
2023-02-22T03:13:10.968Z,3.36
2023-02-22T03:15:37.463Z,3.37
2023-02-22T03:18:03.926Z,3.38
2023-02-22T03:20:42.822Z,3.38
2023-02-22T03:23:12.306Z,3.40
2023-02-22T03:25:46.321Z,3.41
2023-02-22T03:28:15.861Z,3.42
2023-02-22T03:30:51.343Z,3.43
2023-02-22T03:33:22.724Z,3.45
2023-02-22T03:35:54.209Z,3.44
2023-02-22T03:38:20.780Z,3.43
2023-02-22T03:40:49.917Z,3.43
2023-02-22T03:43:20.889Z,3.43
2023-02-22T03:45:48.733Z,3.43
2023-02-22T03:48:37.146Z,3.42
2023-02-22T03:51:05.084Z,3.41
2023-02-22T03:53:33.389Z,3.40
2023-02-22T03:56:01.922Z,3.37
2023-02-22T03:58:31.172Z,3.30
2023-02-22T04:00:57.572Z,3.24
2023-02-22T04:03:24.086Z,3.17
2023-02-22T04:05:50.860Z,3.07
2023-02-22T04:08:20.968Z,3.00
2023-02-22T04:10:47.820Z,2.95
2023-02-22T04:13:15.838Z,2.91
2023-02-22T04:15:45.908Z,2.87
2023-02-22T04:18:12.431Z,2.82
2023-02-22T04:20:38.989Z,2.78
2023-02-22T04:23:10.891Z,2.75
2023-02-22T04:25:39.284Z,2.74
2023-02-22T04:28:11.040Z,2.73
2023-02-22T04:30:45.278Z,2.72
2023-02-22T04:33:14.471Z,2.73
2023-02-22T04:35:40.799Z,2.75
2023-02-22T04:38:07.327Z,2.76
2023-02-22T04:40:36.854Z,2.76
2023-02-22T04:43:03.352Z,2.75
2023-02-22T04:45:30.262Z,2.77
2023-02-22T04:47:56.679Z,2.79
2023-02-22T04:50:23.192Z,2.80
2023-02-22T04:52:49.543Z,2.79
2023-02-22T04:55:16.215Z,2.79
2023-02-22T04:57:42.832Z,2.81
2023-02-22T05:00:09.449Z,2.82
2023-02-22T05:02:40.047Z,2.83
2023-02-22T05:05:08.948Z,2.85
2023-02-22T05:07:35.352Z,2.87
2023-02-22T05:10:01.800Z,2.88
2023-02-22T05:12:28.107Z,2.88
2023-02-22T05:14:54.580Z,2.88
2023-02-22T05:17:20.929Z,2.89
2023-02-22T05:19:47.367Z,2.90
2023-02-22T05:22:16.167Z,2.90
2023-02-22T05:24:42.536Z,2.91
2023-02-22T05:27:11.503Z,2.92
2023-02-22T05:29:37.800Z,2.91
2023-02-22T05:32:11.691Z,2.93
2023-02-22T05:34:41.241Z,2.94
2023-02-22T05:37:07.622Z,2.95
2023-02-22T05:39:34.151Z,2.92
2023-02-22T05:42:00.503Z,2.89
2023-02-22T05:44:29.912Z,2.89
2023-02-22T05:46:56.348Z,2.90
2023-02-22T05:49:30.360Z,2.92
2023-02-22T05:51:59.300Z,2.94
2023-02-22T05:54:25.692Z,2.97
2023-02-22T05:56:54.428Z,3.00
2023-02-22T05:59:20.787Z,3.03
2023-02-22T06:01:49.935Z,3.05
2023-02-22T06:04:16.387Z,3.07
2023-02-22T06:06:43.073Z,3.09
2023-02-22T06:09:09.587Z,3.11
2023-02-22T06:11:35.892Z,3.13
2023-02-22T06:14:02.419Z,3.16
2023-02-22T06:16:29.198Z,3.17
2023-02-22T06:18:55.903Z,3.20
2023-02-22T06:21:22.544Z,3.23
2023-02-22T06:23:48.879Z,3.27
2023-02-22T06:26:16.150Z,3.31
2023-02-22T06:28:47.732Z,3.34
2023-02-22T06:31:19.946Z,3.37
2023-02-22T06:33:46.391Z,3.41
2023-02-22T06:36:12.690Z,3.43
2023-02-22T06:38:39.092Z,3.46
2023-02-22T06:41:05.437Z,3.52
2023-02-22T06:43:31.725Z,3.59
2023-02-22T06:45:58.274Z,3.65
2023-02-22T06:48:25.003Z,3.71
2023-02-22T06:50:51.454Z,3.78
2023-02-22T06:53:17.739Z,3.86
2023-02-22T06:55:44.187Z,3.94
2023-02-22T06:58:10.514Z,3.97
2023-02-22T07:00:37.136Z,4.04
2023-02-22T07:03:04.249Z,4.11
2023-02-22T07:05:33.544Z,4.17
2023-02-22T07:08:04.374Z,4.23
2023-02-22T07:10:31.549Z,4.27
2023-02-22T07:12:58.380Z,4.34
2023-02-22T07:15:25.433Z,4.41
2023-02-22T07:17:52.070Z,4.48
2023-02-22T07:20:19.279Z,4.56
2023-02-22T07:22:45.919Z,4.64
2023-02-22T07:25:12.623Z,4.73
2023-02-22T07:27:39.594Z,4.79
2023-02-22T07:30:06.687Z,4.89
2023-02-22T07:32:33.218Z,4.98
2023-02-22T07:34:59.854Z,5.04
2023-02-22T07:37:31.616Z,5.12
2023-02-22T07:39:57.915Z,5.19
2023-02-22T07:42:24.510Z,5.23
2023-02-22T07:44:50.910Z,5.28
2023-02-22T07:47:17.404Z,5.35
2023-02-22T07:49:43.797Z,5.41
2023-02-22T07:52:10.174Z,5.51
2023-02-22T07:54:36.547Z,5.57
2023-02-22T07:57:03.237Z,5.61
2023-02-22T07:59:29.813Z,5.65
2023-02-22T08:01:56.207Z,5.73
2023-02-22T08:04:22.967Z,5.82
2023-02-22T08:06:49.484Z,5.96
2023-02-22T08:09:16.126Z,6.11
2023-02-22T08:11:42.824Z,6.27
2023-02-22T08:14:09.771Z,6.37
2023-02-22T08:16:36.156Z,6.40
2023-02-22T08:19:02.585Z,6.45
2023-02-22T08:21:28.972Z,6.48
2023-02-22T08:23:55.314Z,6.52
2023-02-22T08:26:21.806Z,6.48
2023-02-22T08:28:48.206Z,6.44
2023-02-22T08:31:14.883Z,6.41
2023-02-22T08:33:41.589Z,6.39
2023-02-22T08:36:08.278Z,6.40
2023-02-22T08:38:35.009Z,6.37
2023-02-22T08:41:01.732Z,6.37
2023-02-22T08:43:28.340Z,6.39
2023-02-22T08:45:57.275Z,6.37
2023-02-22T08:48:24.569Z,6.35
2023-02-22T08:50:51.064Z,6.32
2023-02-22T08:53:19.955Z,6.30
2023-02-22T08:55:48.606Z,6.32
2023-02-22T08:58:17.348Z,6.34
2023-02-22T09:00:44.199Z,6.35
2023-02-22T09:03:12.571Z,6.32
2023-02-22T09:05:39.460Z,6.29
2023-02-22T09:08:08.968Z,6.26
2023-02-22T09:10:35.515Z,6.21
2023-02-22T09:13:04.456Z,6.16
2023-02-22T09:15:31.830Z,6.10
2023-02-22T09:17:58.719Z,6.11
2023-02-22T09:20:34.530Z,6.14
2023-02-22T09:23:02.935Z,6.18
2023-02-22T09:25:49.370Z,6.22
2023-02-22T09:28:15.961Z,6.30
2023-02-22T09:30:47.911Z,6.37
2023-02-22T09:33:22.440Z,6.46
2023-02-22T09:35:49.522Z,6.52
2023-02-22T09:38:18.747Z,6.58
2023-02-22T09:40:47.194Z,6.59
2023-02-22T09:43:26.212Z,6.62
2023-02-22T09:46:04.446Z,6.68
2023-02-22T09:48:55.771Z,6.74
2023-02-22T09:51:24.577Z,6.77
2023-02-22T09:54:10.849Z,6.76
2023-02-22T09:56:38.090Z,6.78
2023-02-22T09:59:10.919Z,6.76
2023-02-22T10:01:44.234Z,6.73
2023-02-22T10:04:21.453Z,6.71
2023-02-22T10:06:56.825Z,6.70
2023-02-22T10:09:26.381Z,6.77
2023-02-22T10:12:02.882Z,6.84
2023-02-22T10:14:35.778Z,6.94
2023-02-22T10:17:21.705Z,7.05
2023-02-22T10:19:57.804Z,7.15
2023-02-22T10:22:30.475Z,7.15
2023-02-22T10:25:05.143Z,7.16
2023-02-22T10:27:32.940Z,7.20
2023-02-22T10:30:25.012Z,7.23
2023-02-22T10:32:55.443Z,7.27
2023-02-22T10:35:23.298Z,7.31
2023-02-22T10:37:54.363Z,7.33
2023-02-22T10:40:22.205Z,7.23
2023-02-22T10:42:51.295Z,7.14
2023-02-22T10:45:29.023Z,7.08
2023-02-22T10:47:56.688Z,7.06
2023-02-22T10:50:23.091Z,7.07
2023-02-22T10:52:49.712Z,7.09
2023-02-22T10:55:16.251Z,7.17
2023-02-22T10:57:46.884Z,7.21
2023-02-22T11:00:18.995Z,7.25
2023-02-22T11:02:57.558Z,7.31
2023-02-22T11:05:37.509Z,7.40
2023-02-22T11:08:24.354Z,7.45
2023-02-22T11:10:55.414Z,7.54
2023-02-22T11:13:27.447Z,7.66
2023-02-22T11:15:55.038Z,7.73
2023-02-22T11:18:23.586Z,7.68
2023-02-22T11:20:58.101Z,7.66
2023-02-22T11:23:24.755Z,7.66
2023-02-22T11:26:00.022Z,7.66
2023-02-22T11:28:28.497Z,7.74
2023-02-22T11:30:56.027Z,7.81
2023-02-22T11:33:24.536Z,7.79
2023-02-22T11:35:55.086Z,7.83
2023-02-22T11:38:25.808Z,7.82
2023-02-22T11:41:12.008Z,7.82
2023-02-22T11:43:38.463Z,7.92
2023-02-22T11:46:12.979Z,7.91
2023-02-22T11:48:41.521Z,7.83
2023-02-22T11:51:17.104Z,7.77
2023-02-22T11:53:52.246Z,7.67
2023-02-22T11:56:37.007Z,7.66
2023-02-22T11:59:18.034Z,7.68
2023-02-22T12:01:47.594Z,7.74
2023-02-22T12:04:14.459Z,7.77
2023-02-22T12:06:50.511Z,7.78
2023-02-22T12:09:38.392Z,7.80
2023-02-22T12:12:23.490Z,7.90
2023-02-22T12:15:11.003Z,7.93
2023-02-22T12:18:00.457Z,8.00
2023-02-22T12:20:59.643Z,8.12
2023-02-22T12:23:47.367Z,8.22
2023-02-22T12:26:17.516Z,8.28
2023-02-22T12:28:51.177Z,8.39
2023-02-22T12:31:20.783Z,8.49
2023-02-22T12:33:51.079Z,8.46
2023-02-22T12:36:22.697Z,8.51
2023-02-22T12:38:56.512Z,8.57
2023-02-22T12:41:49.657Z,8.65
2023-02-22T12:44:21.290Z,8.60
2023-02-22T12:46:55.287Z,8.51
2023-02-22T12:49:27.676Z,8.47
2023-02-22T12:52:20.983Z,8.44
2023-02-22T12:54:52.449Z,8.47
2023-02-22T12:57:19.102Z,8.55
2023-02-22T12:59:51.176Z,8.64
2023-02-22T13:02:20.696Z,8.65
2023-02-22T13:04:48.300Z,8.52
2023-02-22T13:07:20.166Z,8.41
2023-02-22T13:09:58.977Z,8.41
2023-02-22T13:12:37.854Z,8.32
2023-02-22T13:15:13.784Z,8.20
2023-02-22T13:17:46.682Z,8.15
2023-02-22T13:20:25.585Z,8.11
2023-02-22T13:22:55.026Z,8.04
2023-02-22T13:25:21.694Z,8.01
2023-02-22T13:27:51.555Z,7.99
2023-02-22T13:30:25.568Z,7.98
2023-02-22T13:33:09.058Z,8.00
2023-02-22T13:36:09.636Z,8.01
2023-02-22T13:39:04.800Z,7.99
2023-02-22T13:41:47.014Z,7.94
2023-02-22T13:44:32.225Z,7.86
2023-02-22T13:47:01.502Z,7.82
2023-02-22T13:50:08.408Z,7.81
2023-02-22T13:52:38.645Z,7.76
2023-02-22T13:55:08.022Z,7.73
2023-02-22T13:57:45.596Z,7.71
2023-02-22T14:00:17.435Z,7.71
2023-02-22T14:03:02.471Z,7.69
2023-02-22T14:05:41.575Z,7.63
2023-02-22T14:08:17.687Z,7.50
2023-02-22T14:10:46.702Z,7.38
2023-02-22T14:13:16.417Z,7.29
2023-02-22T14:15:58.614Z,7.21
2023-02-22T14:18:26.144Z,7.15
2023-02-22T14:21:09.814Z,7.09
2023-02-22T14:23:37.619Z,6.98
2023-02-22T14:26:10.170Z,6.91
2023-02-22T14:28:48.319Z,6.83
2023-02-22T14:31:33.297Z,6.76
2023-02-22T14:34:15.307Z,6.71
2023-02-22T14:37:06.569Z,6.65
2023-02-22T14:39:41.887Z,6.63
2023-02-22T14:42:21.244Z,6.63
2023-02-22T14:44:47.940Z,6.61
2023-02-22T14:47:17.181Z,6.60
2023-02-22T14:49:46.309Z,6.59
2023-02-22T14:52:27.393Z,6.57
2023-02-22T14:55:04.038Z,6.57
2023-02-22T14:57:54.372Z,6.57
2023-02-22T15:00:43.550Z,6.56
2023-02-22T15:03:39.151Z,6.52
2023-02-22T15:06:14.599Z,6.50
2023-02-22T15:08:41.817Z,6.49
2023-02-22T15:11:25.558Z,6.46
2023-02-22T15:13:53.098Z,6.43
2023-02-22T15:16:21.982Z,6.38
2023-02-22T15:18:53.163Z,6.34
2023-02-22T15:21:22.644Z,6.26
2023-02-22T15:23:55.031Z,6.19
2023-02-22T15:26:26.194Z,6.13
2023-02-22T15:28:53.940Z,6.09
2023-02-22T15:31:23.484Z,6.05
2023-02-22T15:33:51.417Z,6.01
2023-02-22T15:36:18.780Z,5.95
2023-02-22T15:38:49.466Z,5.87
2023-02-22T15:41:21.423Z,5.81
2023-02-22T15:44:22.668Z,5.74
2023-02-22T15:46:50.637Z,5.63
2023-02-22T15:49:19.069Z,5.53
2023-02-22T15:51:46.390Z,5.42
2023-02-22T15:54:25.069Z,5.33
2023-02-22T15:56:54.001Z,5.24
2023-02-22T15:59:21.237Z,5.17
2023-02-22T16:01:49.910Z,5.09
2023-02-22T16:04:24.573Z,5.00
2023-02-22T16:06:53.109Z,4.88
2023-02-22T16:09:21.351Z,4.77
2023-02-22T16:11:48.272Z,4.64
2023-02-22T16:14:28.253Z,4.52
2023-02-22T16:17:23.855Z,4.38
2023-02-22T16:19:51.436Z,4.25
2023-02-22T16:22:28.713Z,4.13
2023-02-22T16:25:10.740Z,4.03
2023-02-22T16:27:41.489Z,3.93
2023-02-22T16:30:24.676Z,3.83
2023-02-22T16:32:53.667Z,3.74
2023-02-22T16:35:23.643Z,3.66
2023-02-22T16:37:51.663Z,3.59
2023-02-22T16:40:26.375Z,3.50
2023-02-22T16:42:52.931Z,3.44
2023-02-22T16:45:20.819Z,3.37
2023-02-22T16:47:47.500Z,3.31
2023-02-22T16:50:14.061Z,3.25
2023-02-22T16:52:40.966Z,3.20
2023-02-22T16:55:13.172Z,3.14
2023-02-22T16:57:40.727Z,3.08
2023-02-22T17:00:28.376Z,3.02
2023-02-22T17:02:55.063Z,2.96
2023-02-22T17:05:21.592Z,2.91
2023-02-22T17:07:48.470Z,2.87
2023-02-22T17:10:16.271Z,2.82
2023-02-22T17:12:46.944Z,2.75
2023-02-22T17:15:22.879Z,2.68
2023-02-22T17:17:51.246Z,2.60
2023-02-22T17:20:18.348Z,2.53
2023-02-22T17:22:47.889Z,2.46
2023-02-22T17:25:22.459Z,2.39
2023-02-22T17:27:49.056Z,2.34
2023-02-22T17:30:16.343Z,2.30
2023-02-22T17:32:45.676Z,2.27
2023-02-22T17:35:15.342Z,2.24
2023-02-22T17:37:52.159Z,2.18
2023-02-22T17:40:20.161Z,2.11
2023-02-22T17:42:50.855Z,2.04
2023-02-22T17:45:21.618Z,1.96
2023-02-22T17:47:51.561Z,1.90
2023-02-22T17:50:19.072Z,1.85
2023-02-22T17:52:46.194Z,1.81
2023-02-22T17:55:12.960Z,1.79
2023-02-22T17:57:39.892Z,1.75
2023-02-22T18:00:07.215Z,1.72
2023-02-22T18:02:42.430Z,1.67
2023-02-22T18:05:14.524Z,1.64
2023-02-22T18:07:41.668Z,1.58
2023-02-22T18:10:09.358Z,1.53
2023-02-22T18:12:36.050Z,1.49
2023-02-22T18:15:02.749Z,1.45
2023-02-22T18:17:29.555Z,1.42
2023-02-22T18:19:56.173Z,1.38
2023-02-22T18:22:42.802Z,1.33
2023-02-22T18:25:13.162Z,1.26
2023-02-22T18:27:42.992Z,1.22
2023-02-22T18:30:09.979Z,1.17
2023-02-22T18:32:39.325Z,1.11
2023-02-22T18:35:06.689Z,1.07
2023-02-22T18:37:34.157Z,1.02
2023-02-22T18:40:00.780Z,0.97
2023-02-22T18:42:27.899Z,0.93
2023-02-22T18:44:54.874Z,0.88
2023-02-22T18:47:21.817Z,0.85
2023-02-22T18:49:48.592Z,0.82
2023-02-22T18:52:15.416Z,0.80
2023-02-22T18:54:42.359Z,0.77
2023-02-22T18:57:10.421Z,0.75
2023-02-22T18:59:39.768Z,0.73
2023-02-22T19:02:12.903Z,0.72
2023-02-22T19:04:41.672Z,0.71
2023-02-22T19:07:10.948Z,0.69
2023-02-22T19:09:37.828Z,0.66
2023-02-22T19:12:05.172Z,0.63
2023-02-22T19:14:34.078Z,0.59
2023-02-22T19:17:03.778Z,0.55
2023-02-22T19:19:36.735Z,0.52
2023-02-22T19:22:04.578Z,0.49
2023-02-22T19:24:33.435Z,0.48
2023-02-22T19:27:05.322Z,0.48
2023-02-22T19:29:41.092Z,0.43
2023-02-22T19:32:11.248Z,0.37
2023-02-22T19:34:37.905Z,0.34
2023-02-22T19:37:04.873Z,0.30
2023-02-22T19:39:32.964Z,0.27
2023-02-22T19:42:12.602Z,0.19
2023-02-22T19:44:43.798Z,0.09
2023-02-22T19:47:11.479Z,0.06
2023-02-22T19:49:38.007Z,0.05
2023-02-22T19:52:04.575Z,0.06
2023-02-22T19:54:31.604Z,0.08
2023-02-22T19:56:59.379Z,0.09
2023-02-22T19:59:26.199Z,0.11
2023-02-22T20:01:53.536Z,0.10
2023-02-22T20:04:20.287Z,0.08
2023-02-22T20:06:48.100Z,0.05
2023-02-22T20:09:16.859Z,0.04
2023-02-22T20:11:44.205Z,0.01
2023-02-22T20:14:21.432Z,-0.04
2023-02-22T20:16:48.347Z,-0.06
2023-02-22T20:19:15.082Z,-0.08
2023-02-22T20:21:42.005Z,-0.09
2023-02-22T20:24:10.441Z,-0.11
2023-02-22T20:26:38.273Z,-0.12
2023-02-22T20:29:06.005Z,-0.14
2023-02-22T20:31:33.538Z,-0.14
2023-02-22T20:34:02.824Z,-0.16
2023-02-22T20:36:29.624Z,-0.17
2023-02-22T20:38:58.048Z,-0.19
2023-02-22T20:41:28.965Z,-0.19
2023-02-22T20:43:55.994Z,-0.20
2023-02-22T20:46:23.452Z,-0.20
2023-02-22T20:48:53.453Z,-0.20
2023-02-22T20:51:20.086Z,-0.21
2023-02-22T20:53:47.185Z,-0.22
2023-02-22T20:56:15.201Z,-0.23
2023-02-22T20:58:41.832Z,-0.24
2023-02-22T21:01:09.504Z,-0.28
2023-02-22T21:03:35.892Z,-0.31
2023-02-22T21:06:03.509Z,-0.34
2023-02-22T21:08:30.566Z,-0.35
2023-02-22T21:10:57.057Z,-0.37
2023-02-22T21:13:23.491Z,-0.37
2023-02-22T21:15:50.157Z,-0.37
2023-02-22T21:18:16.663Z,-0.37
2023-02-22T21:20:43.108Z,-0.36
2023-02-22T21:23:10.019Z,-0.36
2023-02-22T21:25:37.350Z,-0.36
2023-02-22T21:28:04.324Z,-0.37
2023-02-22T21:30:32.241Z,-0.40
2023-02-22T21:32:58.983Z,-0.42
2023-02-22T21:35:25.504Z,-0.46
2023-02-22T21:37:55.137Z,-0.48
2023-02-22T21:40:24.438Z,-0.50
2023-02-22T21:42:50.844Z,-0.53
2023-02-22T21:45:18.673Z,-0.56
2023-02-22T21:47:45.626Z,-0.58
2023-02-22T21:50:12.717Z,-0.61
2023-02-22T21:52:39.175Z,-0.64
2023-02-22T21:55:06.017Z,-0.69
2023-02-22T21:57:32.654Z,-0.73
2023-02-22T22:00:03.693Z,-0.79
2023-02-22T22:02:39.084Z,-0.83
2023-02-22T22:05:11.377Z,-0.86
2023-02-22T22:07:37.990Z,-0.89
2023-02-22T22:10:05.469Z,-0.93
2023-02-22T22:12:44.360Z,-0.96
2023-02-22T22:15:13.473Z,-0.99
2023-02-22T22:17:39.790Z,-0.98
2023-02-22T22:20:07.235Z,-0.99
2023-02-22T22:22:33.647Z,-1.00
2023-02-22T22:25:00.197Z,-1.01
2023-02-22T22:27:26.607Z,-1.01
2023-02-22T22:29:53.038Z,-1.01
2023-02-22T22:32:19.487Z,-1.02
2023-02-22T22:34:45.955Z,-1.04
2023-02-22T22:37:12.661Z,-1.07
2023-02-22T22:39:39.088Z,-1.08
2023-02-22T22:42:05.568Z,-1.10
2023-02-22T22:44:35.247Z,-1.10
2023-02-22T22:47:01.595Z,-1.11
2023-02-22T22:49:27.990Z,-1.10
2023-02-22T22:51:54.367Z,-1.12
2023-02-22T22:54:20.801Z,-1.11
2023-02-22T22:56:47.220Z,-1.11
2023-02-22T22:59:13.659Z,-1.13
2023-02-22T23:01:41.477Z,-1.14
2023-02-22T23:04:09.880Z,-1.13
2023-02-22T23:06:37.885Z,-1.12
2023-02-22T23:09:04.316Z,-1.12
2023-02-22T23:11:30.781Z,-1.12
2023-02-22T23:13:57.151Z,-1.13
2023-02-22T23:16:25.766Z,-1.14
2023-02-22T23:18:52.436Z,-1.15
2023-02-22T23:21:19.142Z,-1.14
2023-02-22T23:23:45.694Z,-1.14
2023-02-22T23:26:12.590Z,-1.14
2023-02-22T23:28:39.475Z,-1.15
2023-02-22T23:31:08.751Z,-1.17
2023-02-22T23:33:35.247Z,-1.19
2023-02-22T23:36:01.598Z,-1.21
2023-02-22T23:38:27.954Z,-1.21
2023-02-22T23:40:54.431Z,-1.20
2023-02-22T23:43:21.322Z,-1.20
2023-02-22T23:45:47.905Z,-1.22
2023-02-22T23:48:14.557Z,-1.23
2023-02-22T23:50:43.697Z,-1.25
2023-02-22T23:53:10.429Z,-1.25
2023-02-22T23:55:37.422Z,-1.25
2023-02-22T23:58:03.871Z,-1.26
